Time;durP1;ratioP1;P1;durP2;ratioP2;P2;SDS_P1;SDS_P2;PMS_P1;PMS_P2;Temp;Humidity;BMP_temperature;BMP_pressure;BME280_temperature;BME280_humidity;BME280_pressure;Samples;Min_cycle;Max_cycle;Signal;HPM_P1;HPM_P2
2023/08/24 00:03:04;;;;;;;13.00;10.60;;;;;;;-140.66;100.00;55571.53;5113602;28;20419;-72
2023/08/24 00:06:48;;;;;;;14.98;11.02;;;;;;;-140.66;100.00;55571.53;5114320;28;20032;-72
2023/08/24 00:10:32;;;;;;;32.85;12.23;;;;;;;-140.66;100.00;55571.53;5114270;28;20107;-72
2023/08/24 00:14:17;;;;;;;26.17;11.27;;;;;;;-140.66;100.00;55571.53;5113373;28;20505;-71
2023/08/24 00:18:01;;;;;;;22.92;11.32;;;;;;;-140.66;100.00;55571.53;5113386;28;20020;-72
2023/08/24 00:21:45;;;;;;;15.43;11.38;;;;;;;-140.66;100.00;55571.53;5112742;28;20160;-73
2023/08/24 00:25:30;;;;;;;16.30;10.70;;;;;;;-140.66;100.00;55571.53;5115600;28;20031;-71
2023/08/24 00:29:14;;;;;;;16.75;11.15;;;;;;;-140.66;100.00;55571.53;5117160;28;20043;-72
2023/08/24 00:32:59;;;;;;;17.70;11.25;;;;;;;-140.66;100.00;55571.53;5116854;28;20054;-71
2023/08/24 00:36:43;;;;;;;17.65;10.63;;;;;;;-140.66;100.00;55571.53;5118135;28;20019;-72
2023/08/24 00:40:27;;;;;;;14.20;10.40;;;;;;;-140.66;100.00;55571.53;5116951;28;20023;-73
2023/08/24 00:44:12;;;;;;;16.08;10.18;;;;;;;-140.66;100.00;55571.53;5116445;28;20027;-71
2023/08/24 00:47:57;;;;;;;18.88;10.27;;;;;;;-140.66;100.00;55571.53;5117071;28;20075;-72
2023/08/24 00:51:41;;;;;;;17.20;11.00;;;;;;;-140.66;100.00;55571.53;5116822;28;20464;-71
2023/08/24 00:55:25;;;;;;;13.85;9.93;;;;;;;-140.66;100.00;55571.53;5115808;28;20373;-72
2023/08/24 00:59:10;;;;;;;14.98;10.65;;;;;;;-140.66;100.00;55571.53;5115844;28;20020;-71
2023/08/24 01:02:55;;;;;;;17.58;10.82;;;;;;;-140.66;100.00;55571.53;5116032;28;20031;-71
2023/08/24 01:06:40;;;;;;;19.08;11.48;;;;;;;-140.66;100.00;55571.53;5116313;28;20024;-72
2023/08/24 01:10:30;;;;;;;26.25;11.30;;;;;;;-140.66;100.00;55571.53;5116240;28;20019;-72
2023/08/24 01:14:20;;;;;;;13.38;10.80;;;;;;;-140.66;100.00;55571.53;5116683;28;20028;-72
2023/08/24 01:18:13;;;;;;;14.60;11.00;;;;;;;-140.66;100.00;55571.53;5116569;28;20080;-73
2023/08/24 01:22:01;;;;;;;14.30;10.95;;;;;;;-140.66;100.00;55571.53;5129546;27;20028;-72
2023/08/24 01:25:51;;;;;;;14.00;10.85;;;;;;;-140.66;100.00;55571.53;5129332;27;20024;-72
2023/08/24 01:29:38;;;;;;;17.27;12.25;;;;;;;-140.66;100.00;55571.53;5115628;28;20039;-73
2023/08/24 01:33:22;;;;;;;17.65;11.15;;;;;;;-140.66;100.00;55571.53;5115713;28;20437;-71
2023/08/24 01:37:08;;;;;;;16.50;11.40;;;;;;;-140.66;100.00;55571.53;5115599;28;20110;-72
2023/08/24 01:41:16;;;;;;;14.07;10.52;;;;;;;-140.66;100.00;55571.53;5116306;28;20027;-72
2023/08/24 01:45:03;;;;;;;19.83;11.20;;;;;;;-140.66;100.00;55571.53;5115801;28;20115;-72
2023/08/24 01:48:48;;;;;;;20.25;11.07;;;;;;;-140.66;100.00;55571.53;5128833;27;20051;-72
2023/08/24 01:52:34;;;;;;;14.20;11.32;;;;;;;-140.66;100.00;55571.53;5115655;28;20346;-71
2023/08/24 01:56:18;;;;;;;13.45;10.35;;;;;;;-140.66;100.00;55571.53;5116429;28;20023;-72
2023/08/24 02:00:06;;;;;;;13.32;10.93;;;;;;;-140.66;100.00;55571.53;5115100;28;20110;-72
2023/08/24 02:03:50;;;;;;;18.70;11.57;;;;;;;-140.66;100.00;55571.53;5115396;28;20034;-72
2023/08/24 02:07:34;;;;;;;14.77;10.50;;;;;;;-140.66;100.00;55571.53;5115411;28;20164;-72
2023/08/24 02:11:18;;;;;;;17.60;10.57;;;;;;;-140.66;100.00;55571.53;5115122;28;20035;-72
2023/08/24 02:15:03;;;;;;;13.77;9.82;;;;;;;-140.66;100.00;55571.53;5119296;28;20027;-72
2023/08/24 02:18:47;;;;;;;13.93;10.30;;;;;;;-140.66;100.00;55571.53;5121480;28;20023;-71
2023/08/24 02:22:34;;;;;;;14.45;9.77;;;;;;;-140.66;100.00;55571.53;5118595;28;20038;-70
2023/08/24 02:26:18;;;;;;;12.80;9.75;;;;;;;-140.66;100.00;55571.53;5118680;28;20204;-71
2023/08/24 02:30:02;;;;;;;14.18;9.43;;;;;;;-140.66;100.00;55571.53;5117680;28;20106;-70
2023/08/24 02:33:48;;;;;;;15.20;9.38;;;;;;;-140.66;100.00;55571.53;5118387;28;20055;-71
2023/08/24 02:37:32;;;;;;;16.58;9.38;;;;;;;-140.66;100.00;55571.53;5119260;28;20027;-71
2023/08/24 02:41:17;;;;;;;17.10;10.23;;;;;;;-140.66;100.00;55571.53;5114073;28;20060;-72
2023/08/24 02:45:02;;;;;;;14.27;9.52;;;;;;;-140.66;100.00;55571.53;5114834;28;20058;-72
2023/08/24 02:48:46;;;;;;;17.90;10.13;;;;;;;-140.66;100.00;55571.53;5113865;28;20116;-72
2023/08/24 02:52:30;;;;;;;14.32;10.40;;;;;;;-140.66;100.00;55571.53;5114850;28;20106;-73
2023/08/24 02:56:15;;;;;;;16.58;10.00;;;;;;;-140.66;100.00;55571.53;5114992;28;20027;-72
2023/08/24 02:59:59;;;;;;;15.23;9.90;;;;;;;-140.66;100.00;55571.53;5114242;28;20024;-71
2023/08/24 03:03:43;;;;;;;14.82;10.05;;;;;;;-140.66;100.00;55571.53;5116047;28;20349;-72
2023/08/24 03:07:28;;;;;;;13.93;10.10;;;;;;;-140.66;100.00;55571.53;5127838;27;20024;-71
2023/08/24 03:11:12;;;;;;;14.52;10.23;;;;;;;-140.66;100.00;55571.53;5114799;28;20454;-72
2023/08/24 03:14:56;;;;;;;15.70;10.80;;;;;;;-140.66;100.00;55571.53;5114042;28;20035;-72
2023/08/24 03:18:40;;;;;;;19.88;10.30;;;;;;;-140.66;100.00;55571.53;5114727;28;20119;-71
2023/08/24 03:22:24;;;;;;;19.05;10.57;;;;;;;-140.66;100.00;55571.53;5114962;28;20085;-72
2023/08/24 03:26:09;;;;;;;20.60;10.68;;;;;;;-140.66;100.00;55571.53;5117554;28;20023;-72
2023/08/24 03:29:53;;;;;;;25.02;10.88;;;;;;;-140.66;100.00;55571.53;5114874;28;20031;-72
2023/08/24 03:33:40;;;;;;;14.95;10.85;;;;;;;-140.66;100.00;55571.53;5113333;28;20472;-70
2023/08/24 03:37:25;;;;;;;14.65;10.48;;;;;;;-140.66;100.00;55571.53;5113933;28;20034;-71
2023/08/24 03:41:10;;;;;;;15.52;10.80;;;;;;;-140.66;100.00;55571.53;5113723;28;20041;-70
2023/08/24 03:44:54;;;;;;;19.38;10.50;;;;;;;-140.66;100.00;55571.53;5127263;28;20028;-71
2023/08/24 03:48:38;;;;;;;14.25;11.25;;;;;;;-140.66;100.00;55571.53;5113395;28;20122;-72
2023/08/24 03:52:23;;;;;;;15.60;10.40;;;;;;;-140.66;100.00;55571.53;5114367;28;20440;-72
2023/08/24 03:56:07;;;;;;;14.52;10.32;;;;;;;-140.66;100.00;55571.53;5114588;28;20031;-71
2023/08/24 03:59:51;;;;;;;15.00;10.55;;;;;;;-140.66;100.00;55571.53;5115081;28;20020;-72
2023/08/24 04:03:36;;;;;;;16.27;10.95;;;;;;;-140.66;100.00;55571.53;5117809;28;20511;-71
2023/08/24 04:07:20;;;;;;;17.65;11.18;;;;;;;-140.66;100.00;55571.53;5118489;28;20059;-72
2023/08/24 04:11:05;;;;;;;20.08;11.00;;;;;;;-140.66;100.00;55571.53;5117572;28;20036;-72
2023/08/24 04:14:49;;;;;;;18.38;11.20;;;;;;;-140.66;100.00;55571.53;5117905;28;20083;-72
2023/08/24 04:18:34;;;;;;;15.90;10.55;;;;;;;-140.66;100.00;55571.53;5118073;28;20024;-72
2023/08/24 04:22:18;;;;;;;18.95;10.55;;;;;;;-140.66;100.00;55571.53;5117239;28;20028;-73
2023/08/24 04:26:04;;;;;;;17.88;10.77;;;;;;;-140.66;100.00;55571.53;5117691;28;20024;-71
2023/08/24 04:29:49;;;;;;;18.33;10.50;;;;;;;-140.66;100.00;55571.53;5117614;28;20031;-71
2023/08/24 04:33:33;;;;;;;14.73;11.02;;;;;;;-140.66;100.00;55571.53;5117606;28;20055;-71
2023/08/24 04:37:17;;;;;;;15.15;10.75;;;;;;;-140.66;100.00;55571.53;5117083;28;20445;-71
2023/08/24 04:41:07;;;;;;;14.85;11.27;;;;;;;-140.66;100.00;55571.53;5117539;28;20054;-72
2023/08/24 04:44:51;;;;;;;16.75;10.65;;;;;;;-140.66;100.00;55571.53;5117074;28;20128;-72
2023/08/24 04:48:35;;;;;;;16.95;10.80;;;;;;;-140.66;100.00;55571.53;5115727;28;20089;-72
2023/08/24 04:52:19;;;;;;;18.60;11.38;;;;;;;-140.66;100.00;55571.53;5117228;28;20361;-72
2023/08/24 04:56:04;;;;;;;17.25;11.63;;;;;;;-140.66;100.00;55571.53;5117139;28;20024;-71
2023/08/24 04:59:54;;;;;;;17.33;11.35;;;;;;;-140.66;100.00;55571.53;5117148;28;20024;-72
2023/08/24 05:03:39;;;;;;;24.25;11.20;;;;;;;-140.66;100.00;55571.53;5116748;28;20073;-70
2023/08/24 05:07:23;;;;;;;19.23;11.35;;;;;;;-140.66;100.00;55571.53;5116217;28;20027;-71
2023/08/24 05:11:14;;;;;;;16.85;11.30;;;;;;;-140.66;100.00;55571.53;5115583;28;20030;-71
2023/08/24 05:14:58;;;;;;;17.52;11.77;;;;;;;-140.66;100.00;55571.53;5115807;28;20027;-71
2023/08/24 05:18:42;;;;;;;22.08;11.63;;;;;;;-140.66;100.00;55571.53;5116578;28;20366;-72
2023/08/24 05:22:26;;;;;;;23.75;12.10;;;;;;;-140.66;100.00;55571.53;5116299;28;20031;-71
2023/08/24 05:26:10;;;;;;;18.25;11.82;;;;;;;-140.66;100.00;55571.53;5115407;28;20088;-71
2023/08/24 05:29:55;;;;;;;20.98;12.65;;;;;;;-140.66;100.00;55571.53;5115453;28;20119;-72
2023/08/24 05:33:39;;;;;;;20.88;11.85;;;;;;;-140.66;100.00;55571.53;5115760;28;20030;-72
2023/08/24 05:37:24;;;;;;;16.90;12.02;;;;;;;-140.66;100.00;55571.53;5116580;28;20365;-71
2023/08/24 05:41:08;;;;;;;22.35;12.32;;;;;;;-140.66;100.00;55571.53;5115885;28;20441;-72
2023/08/24 05:44:53;;;;;;;21.95;12.43;;;;;;;-140.66;100.00;55571.53;5115237;28;20031;-72
2023/08/24 05:48:37;;;;;;;18.85;12.85;;;;;;;-140.66;100.00;55571.53;5115472;28;20051;-71
2023/08/24 05:52:21;;;;;;;18.90;12.45;;;;;;;-140.66;100.00;55571.53;5128805;27;20027;-72
2023/08/24 05:56:06;;;;;;;16.55;12.43;;;;;;;-140.66;100.00;55571.53;5116107;28;20048;-72
2023/08/24 05:59:50;;;;;;;18.80;12.18;;;;;;;-140.66;100.00;55571.53;5114590;28;20120;-72
2023/08/24 06:03:35;;;;;;;19.58;12.82;;;;;;;-140.66;100.00;55571.53;5115116;28;20152;-72
2023/08/24 06:07:19;;;;;;;18.13;12.27;;;;;;;-140.66;100.00;55571.53;5114637;28;20028;-72
2023/08/24 06:11:03;;;;;;;25.30;13.50;;;;;;;-140.66;100.00;55571.53;5115096;28;20448;-73
2023/08/24 06:14:48;;;;;;;23.70;13.65;;;;;;;-140.66;100.00;55571.53;5114707;28;20042;-72
2023/08/24 06:18:32;;;;;;;22.75;14.82;;;;;;;-140.66;100.00;55571.53;5114966;28;20016;-72
2023/08/24 06:22:16;;;;;;;25.33;12.80;;;;;;;-140.66;100.00;55571.53;5114396;28;20032;-72
2023/08/24 06:26:01;;;;;;;21.73;14.25;;;;;;;-140.66;100.00;55571.53;5115628;28;20506;-72
2023/08/24 06:29:45;;;;;;;19.27;12.68;;;;;;;-140.66;100.00;55571.53;5115089;28;20047;-71
2023/08/24 06:33:32;;;;;;;23.70;12.65;;;;;;;-140.66;100.00;55571.53;5114489;28;20019;-72
2023/08/24 06:37:17;;;;;;;19.55;12.52;;;;;;;-140.66;100.00;55571.53;5114467;28;20020;-73
2023/08/24 06:41:01;;;;;;;19.85;12.85;;;;;;;-140.66;100.00;55571.53;5115129;28;20023;-73
2023/08/24 06:44:45;;;;;;;21.77;12.15;;;;;;;-140.66;100.00;55571.53;5114771;28;20046;-73
2023/08/24 06:48:29;;;;;;;22.27;12.85;;;;;;;-140.66;100.00;55571.53;5112996;28;20048;-72
2023/08/24 06:52:14;;;;;;;18.40;12.75;;;;;;;-140.66;100.00;55571.53;5114191;28;20114;-73
2023/08/24 06:55:58;;;;;;;23.42;12.65;;;;;;;-140.66;100.00;55571.53;5114651;28;20027;-73
2023/08/24 06:59:43;;;;;;;21.85;12.90;;;;;;;-140.66;100.00;55571.53;5114795;28;20023;-71
2023/08/24 07:03:27;;;;;;;19.45;12.68;;;;;;;-140.66;100.00;55571.53;5114165;28;20047;-71
2023/08/24 07:07:12;;;;;;;17.02;12.63;;;;;;;-140.66;100.00;55571.53;5113715;28;20039;-74
2023/08/24 07:10:56;;;;;;;20.52;12.30;;;;;;;-140.66;100.00;55571.53;5114142;28;20114;-72
2023/08/24 07:14:40;;;;;;;14.73;13.13;;;;;;;-140.66;100.00;55571.53;5114222;28;20049;-72
2023/08/24 07:18:24;;;;;;;16.10;13.07;;;;;;;-140.66;100.00;55571.53;5114406;28;20027;-72
2023/08/24 07:22:09;;;;;;;16.45;12.95;;;;;;;-140.66;100.00;55571.53;5113554;28;20046;-73
2023/08/24 07:25:53;;;;;;;17.10;12.43;;;;;;;-140.66;100.00;55571.53;5114292;28;20024;-72
2023/08/24 07:29:37;;;;;;;20.45;12.40;;;;;;;-140.66;100.00;55571.53;5113973;28;20031;-73
2023/08/24 07:33:22;;;;;;;17.45;12.95;;;;;;;-140.66;100.00;55571.53;5113670;28;20027;-73
2023/08/24 07:37:06;;;;;;;21.67;12.35;;;;;;;-140.66;100.00;55571.53;5118110;28;20452;-72
2023/08/24 07:40:50;;;;;;;26.33;12.52;;;;;;;-140.66;100.00;55571.53;5117548;28;20046;-72
2023/08/24 07:44:35;;;;;;;17.38;13.00;;;;;;;-140.66;100.00;55571.53;5117511;28;20449;-72
2023/08/24 07:48:19;;;;;;;15.60;12.07;;;;;;;-140.66;100.00;55571.53;5117084;28;20437;-72
2023/08/24 07:52:04;;;;;;;17.55;12.75;;;;;;;-140.66;100.00;55571.53;5117445;28;20024;-72
2023/08/24 07:55:48;;;;;;;15.80;12.05;;;;;;;-140.66;100.00;55571.53;5117290;28;20365;-71
2023/08/24 07:59:32;;;;;;;14.88;12.00;;;;;;;-140.66;100.00;55571.53;5117333;28;20020;-72
2023/08/24 08:03:20;;;;;;;15.70;11.85;;;;;;;-140.66;100.00;55571.53;5117735;28;20076;-72
2023/08/24 08:07:04;;;;;;;14.48;11.65;;;;;;;-140.66;100.00;55571.53;5117569;28;20027;-71
2023/08/24 08:10:57;;;;;;;13.90;11.02;;;;;;;-140.66;100.00;55571.53;5118008;28;20373;-72
2023/08/24 08:14:41;;;;;;;13.88;11.45;;;;;;;-140.66;100.00;55571.53;5117568;28;20023;-72
2023/08/24 08:18:25;;;;;;;20.35;11.95;;;;;;;-140.66;100.00;55571.53;5116833;28;20024;-72
2023/08/24 08:22:13;;;;;;;13.77;11.63;;;;;;;-140.66;100.00;55571.53;5117644;28;20038;-72
2023/08/24 08:25:57;;;;;;;14.45;11.80;;;;;;;-140.66;100.00;55571.53;5117156;28;20036;-72
2023/08/24 08:29:42;;;;;;;18.77;11.90;;;;;;;-140.66;100.00;55571.53;5117620;28;20452;-73
2023/08/24 08:33:26;;;;;;;16.00;11.77;;;;;;;-140.66;100.00;55571.53;5116334;28;20031;-73
2023/08/24 08:37:11;;;;;;;15.68;10.95;;;;;;;-140.66;100.00;55571.53;5117041;28;20034;-73
2023/08/24 08:40:56;;;;;;;15.13;11.50;;;;;;;-140.66;100.00;55571.53;5116492;28;20034;-72
2023/08/24 08:44:41;;;;;;;15.18;11.60;;;;;;;-140.66;100.00;55571.53;5116643;28;20403;-73
2023/08/24 08:48:25;;;;;;;20.52;11.93;;;;;;;-140.66;100.00;55571.53;5115978;28;20093;-72
2023/08/24 08:52:11;;;;;;;20.90;12.70;;;;;;;-140.66;100.00;55571.53;5117197;28;20023;-72
2023/08/24 08:55:57;;;;;;;19.90;12.30;;;;;;;-140.66;100.00;55571.53;5116735;28;20319;-72
2023/08/24 08:59:42;;;;;;;16.90;11.63;;;;;;;-140.66;100.00;55571.53;5115980;28;20370;-72
2023/08/24 09:03:28;;;;;;;17.02;12.07;;;;;;;-140.66;100.00;55571.53;5116322;28;20345;-72
2023/08/24 09:07:13;;;;;;;20.50;11.68;;;;;;;-140.66;100.00;55571.53;5116037;28;20103;-72
2023/08/24 09:11:00;;;;;;;15.45;11.75;;;;;;;-140.66;100.00;55571.53;5115993;28;20023;-73
2023/08/24 09:14:45;;;;;;;13.02;11.73;;;;;;;-140.66;100.00;55571.53;5116174;28;20420;-71
2023/08/24 09:18:36;;;;;;;20.17;12.10;;;;;;;-140.66;100.00;55571.53;5116119;28;20027;-72
2023/08/24 09:22:22;;;;;;;12.18;10.77;;;;;;;-140.66;100.00;55571.53;5116276;28;20463;-72
2023/08/24 09:26:09;;;;;;;14.68;10.38;;;;;;;-140.66;100.00;55571.53;5115831;28;20040;-73
2023/08/24 09:29:53;;;;;;;12.88;10.50;;;;;;;-140.66;100.00;55571.53;5116436;28;20020;-73
2023/08/24 09:33:37;;;;;;;18.70;12.10;;;;;;;-140.66;100.00;55571.53;5115583;28;20118;-72
2023/08/24 09:37:22;;;;;;;16.80;11.32;;;;;;;-140.66;100.00;55571.53;5115953;28;20019;-72
2023/08/24 09:41:06;;;;;;;17.70;11.60;;;;;;;-140.66;100.00;55571.53;5115404;28;20098;-73
2023/08/24 09:44:50;;;;;;;13.57;11.55;;;;;;;-140.66;100.00;55571.53;5115453;28;20023;-71
2023/08/24 09:48:34;;;;;;;15.95;11.38;;;;;;;-140.66;100.00;55571.53;5114892;28;20097;-73
2023/08/24 09:52:20;;;;;;;15.90;11.80;;;;;;;-140.66;100.00;55571.53;5115333;28;20038;-72
2023/08/24 09:56:06;;;;;;;14.30;10.80;;;;;;;-140.66;100.00;55571.53;5115701;28;20035;-73
2023/08/24 09:59:52;;;;;;;36.75;12.30;;;;;;;-140.66;100.00;55571.53;5115779;28;20084;-72
2023/08/24 10:03:46;;;;;;;16.70;10.00;;;;;;;-140.66;100.00;55571.53;5114819;28;20453;-72
2023/08/24 10:07:37;;;;;;;15.27;9.48;;;;;;;-140.66;100.00;55571.53;5115770;28;20032;-72
2023/08/24 10:11:28;;;;;;;11.40;9.93;;;;;;;-140.66;100.00;55571.53;5115576;28;20028;-72
2023/08/24 10:15:17;;;;;;;11.43;9.25;;;;;;;-140.66;100.00;55571.53;5114482;28;20102;-73
2023/08/24 10:19:03;;;;;;;10.38;8.15;;;;;;;-140.66;100.00;55571.53;5114461;28;20045;-73
2023/08/24 10:22:48;;;;;;;14.00;9.88;;;;;;;-140.66;100.00;55571.53;5114527;28;20460;-73
2023/08/24 10:26:33;;;;;;;13.15;9.32;;;;;;;-140.66;100.00;55571.53;5115454;28;20028;-72
2023/08/24 10:30:19;;;;;;;9.15;8.25;;;;;;;-140.66;100.00;55571.53;5114391;28;20024;-72
2023/08/24 10:34:05;;;;;;;10.65;8.45;;;;;;;-140.66;100.00;55571.53;5115137;28;20028;-71
2023/08/24 10:37:52;;;;;;;16.00;10.27;;;;;;;-140.66;100.00;55571.53;5115314;28;20037;-73
2023/08/24 10:41:47;;;;;;;12.82;9.10;;;;;;;-140.66;100.00;55571.53;5114286;28;20509;-72
2023/08/24 10:45:51;;;;;;;13.68;9.05;;;;;;;-140.66;100.00;55571.53;5115271;28;20126;-73
2023/08/24 10:49:39;;;;;;;12.35;9.13;;;;;;;-140.66;100.00;55571.53;5114052;28;20043;-72
2023/08/24 10:53:39;;;;;;;9.23;8.25;;;;;;;-140.66;100.00;55571.53;5113435;28;20406;-72
2023/08/24 10:57:38;;;;;;;9.57;7.88;;;;;;;-140.66;100.00;55571.53;5115256;28;20110;-72
2023/08/24 11:01:27;;;;;;;11.20;8.40;;;;;;;-140.66;100.00;55571.53;5114913;28;20019;-70
2023/08/24 11:05:27;;;;;;;12.55;8.75;;;;;;;-140.66;100.00;55571.53;5115004;28;20028;-70
2023/08/24 11:09:15;;;;;;;14.65;9.18;;;;;;;-140.66;100.00;55571.53;5113636;28;20028;-71
2023/08/24 11:13:03;;;;;;;10.65;9.30;;;;;;;-140.66;100.00;55571.53;5113389;28;20028;-70
2023/08/24 11:16:49;;;;;;;10.98;8.27;;;;;;;-140.66;100.00;55571.53;5113834;28;20131;-69
2023/08/24 11:20:34;;;;;;;18.13;8.63;;;;;;;-140.66;100.00;55571.53;5113857;28;20027;-69
2023/08/24 11:24:18;;;;;;;10.30;8.38;;;;;;;-140.66;100.00;55571.53;5114082;28;20087;-71
2023/08/24 11:28:03;;;;;;;13.52;8.88;;;;;;;-140.66;100.00;55571.53;5113630;28;20035;-70
2023/08/24 11:31:48;;;;;;;19.08;9.20;;;;;;;-140.66;100.00;55571.53;5113091;28;20039;-71
2023/08/24 11:35:35;;;;;;;12.10;8.82;;;;;;;-140.66;100.00;55571.53;5113448;28;20023;-71
2023/08/24 11:39:20;;;;;;;10.75;9.10;;;;;;;-140.66;100.00;55571.53;5114602;28;20106;-71
2023/08/24 11:43:05;;;;;;;14.10;8.70;;;;;;;-140.66;100.00;55571.53;5113289;28;20028;-71
2023/08/24 11:46:49;;;;;;;10.25;8.90;;;;;;;-140.66;100.00;55571.53;5113821;28;20380;-71
2023/08/24 11:50:34;;;;;;;11.85;9.10;;;;;;;-140.66;100.00;55571.53;5112987;28;20063;-71
2023/08/24 11:54:19;;;;;;;18.58;10.20;;;;;;;-140.66;100.00;55571.53;5126696;28;20027;-71
2023/08/24 11:58:13;;;;;;;13.10;9.30;;;;;;;-140.66;100.00;55571.53;5113666;28;20411;-70
2023/08/24 12:01:57;;;;;;;10.15;8.88;;;;;;;-140.66;100.00;55571.53;5112509;28;20047;-71
2023/08/24 12:05:42;;;;;;;10.90;9.25;;;;;;;-140.66;100.00;55571.53;5114230;28;20460;-70
2023/08/24 12:09:28;;;;;;;17.90;8.90;;;;;;;-140.66;100.00;55571.53;5112561;28;20031;-71
2023/08/24 12:13:13;;;;;;;15.55;9.73;;;;;;;-140.66;100.00;55571.53;5114418;28;20027;-70
2023/08/24 12:16:57;;;;;;;13.30;8.95;;;;;;;-140.66;100.00;55571.53;5112862;28;20066;-71
2023/08/24 12:20:43;;;;;;;14.13;9.15;;;;;;;-140.66;100.00;55571.53;5115533;28;20028;-71
2023/08/24 12:24:30;;;;;;;16.05;9.35;;;;;;;-140.66;100.00;55571.53;5117151;28;20030;-72
2023/08/24 12:28:21;;;;;;;16.15;9.60;;;;;;;-140.66;100.00;55571.53;5116987;28;20030;-72
2023/08/24 12:32:05;;;;;;;14.63;9.18;;;;;;;-140.66;100.00;55571.53;5115831;28;20031;-71
2023/08/24 12:35:50;;;;;;;17.48;9.18;;;;;;;-140.66;100.00;55571.53;5116974;28;20027;-71
2023/08/24 12:39:37;;;;;;;13.00;8.65;;;;;;;-140.66;100.00;55571.53;5116901;28;20326;-72
2023/08/24 12:43:21;;;;;;;12.27;9.10;;;;;;;-140.66;100.00;55571.53;5116993;28;20035;-70
2023/08/24 12:47:05;;;;;;;9.93;8.82;;;;;;;-140.66;100.00;55571.53;5116283;28;20024;-71
2023/08/24 12:50:50;;;;;;;14.00;9.02;;;;;;;-140.66;100.00;55571.53;5114728;28;20027;-71
2023/08/24 12:54:34;;;;;;;14.98;9.48;;;;;;;-140.66;100.00;55571.53;5117427;28;20035;-70
2023/08/24 12:58:19;;;;;;;10.85;8.80;;;;;;;-140.66;100.00;55571.53;5115824;28;20102;-71
2023/08/24 13:02:04;;;;;;;15.80;9.20;;;;;;;-140.66;100.00;55571.53;5116490;28;20019;-70
2023/08/24 13:05:48;;;;;;;17.25;8.93;;;;;;;-140.66;100.00;55571.53;5116213;28;20054;-71
2023/08/24 13:09:32;;;;;;;25.83;9.50;;;;;;;-140.66;100.00;55571.53;5116238;28;20036;-71
2023/08/24 13:13:17;;;;;;;17.92;9.20;;;;;;;-140.66;100.00;55571.53;5115790;28;20032;-71
2023/08/24 13:17:01;;;;;;;11.23;8.90;;;;;;;-140.66;100.00;55571.53;5115887;28;20035;-71
2023/08/24 13:20:45;;;;;;;15.20;9.40;;;;;;;-140.66;100.00;55571.53;5114929;28;20031;-71
2023/08/24 13:24:30;;;;;;;20.35;9.50;;;;;;;-140.66;100.00;55571.53;5117109;28;20023;-72
2023/08/24 13:28:14;;;;;;;14.05;9.85;;;;;;;-140.66;100.00;55571.53;5116356;28;20023;-73
2023/08/24 13:31:59;;;;;;;12.65;8.98;;;;;;;-140.66;100.00;55571.53;5114479;28;20035;-71
2023/08/24 13:35:43;;;;;;;11.48;9.60;;;;;;;-140.66;100.00;55571.53;5115468;28;20069;-71
2023/08/24 13:39:30;;;;;;;18.45;9.15;;;;;;;-140.66;100.00;55571.53;5128982;27;20075;-71
2023/08/24 13:43:14;;;;;;;15.60;9.00;;;;;;;-140.66;100.00;55571.53;5128716;27;20031;-71
2023/08/24 13:46:58;;;;;;;15.45;9.90;;;;;;;-140.66;100.00;55571.53;5115480;28;20104;-71
2023/08/24 13:50:49;;;;;;;15.15;8.95;;;;;;;-140.66;100.00;55571.53;5115083;28;20032;-71
2023/08/24 13:54:33;;;;;;;11.70;9.57;;;;;;;-140.66;100.00;55571.53;5115168;28;20106;-71
2023/08/24 13:58:17;;;;;;;12.15;9.45;;;;;;;-140.66;100.00;55571.53;5115927;28;20456;-71
2023/08/24 14:02:03;;;;;;;9.80;8.60;;;;;;;-140.66;100.00;55571.53;5114612;28;20020;-71
2023/08/24 14:05:49;;;;;;;12.13;9.18;;;;;;;-140.66;100.00;55571.53;5114888;28;20038;-71
2023/08/24 14:09:34;;;;;;;10.40;9.00;;;;;;;-140.66;100.00;55571.53;5115337;28;20427;-72
2023/08/24 14:13:18;;;;;;;19.75;9.43;;;;;;;-140.66;100.00;55571.53;5114688;28;20042;-72
2023/08/24 14:17:02;;;;;;;19.70;9.50;;;;;;;-140.66;100.00;55571.53;5114320;28;20028;-71
2023/08/24 14:20:47;;;;;;;23.17;10.10;;;;;;;-140.66;100.00;55571.53;5114476;28;20112;-71
2023/08/24 14:24:31;;;;;;;12.48;9.07;;;;;;;-140.66;100.00;55571.53;5115437;28;20365;-71
2023/08/24 14:28:20;;;;;;;13.65;9.10;;;;;;;-140.66;100.00;55571.53;5128996;27;20046;-71
2023/08/24 14:32:04;;;;;;;9.93;8.90;;;;;;;-140.66;100.00;55571.53;5114020;28;20353;-71
2023/08/24 14:35:52;;;;;;;11.00;8.95;;;;;;;-140.66;100.00;55571.53;5114154;28;20030;-71
2023/08/24 14:39:39;;;;;;;15.25;8.90;;;;;;;-140.66;100.00;55571.53;5115020;28;20079;-70
2023/08/24 14:43:23;;;;;;;14.32;8.95;;;;;;;-140.66;100.00;55571.53;5114187;28;20023;-74
2023/08/24 14:47:07;;;;;;;15.95;9.20;;;;;;;-140.66;100.00;55571.53;5113105;28;20338;-71
2023/08/24 14:50:52;;;;;;;13.82;9.65;;;;;;;-140.66;100.00;55571.53;5112859;28;20034;-73
2023/08/24 14:54:36;;;;;;;12.73;8.85;;;;;;;-140.66;100.00;55571.53;5115017;28;20042;-72
2023/08/24 14:58:21;;;;;;;30.52;9.90;;;;;;;-140.66;100.00;55571.53;5112879;28;20031;-70
2023/08/24 15:02:06;;;;;;;20.13;9.05;;;;;;;-140.66;100.00;55571.53;5113713;28;20047;-71
2023/08/24 15:05:56;;;;;;;30.67;9.90;;;;;;;-140.66;100.00;55571.53;5114995;28;20027;-71
2023/08/24 15:09:40;;;;;;;16.27;9.00;;;;;;;-140.66;100.00;55571.53;5114017;28;20067;-71
2023/08/24 15:13:25;;;;;;;15.77;9.55;;;;;;;-140.66;100.00;55571.53;5114385;28;20107;-71
2023/08/24 15:17:09;;;;;;;17.02;9.90;;;;;;;-140.66;100.00;55571.53;5114980;28;20077;-72
2023/08/24 15:20:54;;;;;;;17.58;9.57;;;;;;;-140.66;100.00;55571.53;5113217;28;20111;-72
2023/08/24 15:24:38;;;;;;;13.80;8.85;;;;;;;-140.66;100.00;55571.53;5114044;28;20028;-72
2023/08/24 15:28:23;;;;;;;14.05;9.40;;;;;;;-140.66;100.00;55571.53;5113640;28;20123;-71
2023/08/24 15:32:08;;;;;;;17.77;9.70;;;;;;;-140.66;100.00;55571.53;5113984;28;20032;-71
2023/08/24 15:35:52;;;;;;;11.73;9.40;;;;;;;-140.66;100.00;55571.53;5114286;28;20024;-72
2023/08/24 15:39:37;;;;;;;15.25;8.73;;;;;;;-140.66;100.00;55571.53;5114252;28;20120;-70
2023/08/24 15:43:22;;;;;;;23.02;8.88;;;;;;;-140.66;100.00;55571.53;5112904;28;20100;-72
2023/08/24 15:47:07;;;;;;;15.20;9.68;;;;;;;-140.66;100.00;55571.53;5126567;28;20040;-72
2023/08/24 15:50:51;;;;;;;15.68;9.45;;;;;;;-140.66;100.00;55571.53;5114369;28;20055;-72
2023/08/24 15:54:35;;;;;;;16.73;10.35;;;;;;;-140.66;100.00;55571.53;5115125;28;20023;-72
2023/08/24 15:58:19;;;;;;;14.45;10.32;;;;;;;-140.66;100.00;55571.53;5116849;28;20023;-71
2023/08/24 16:02:04;;;;;;;19.10;9.40;;;;;;;-140.66;100.00;55571.53;5118294;28;20058;-72
2023/08/24 16:05:50;;;;;;;34.38;10.20;;;;;;;-140.66;100.00;55571.53;5118788;28;20389;-72
2023/08/24 16:09:34;;;;;;;16.20;9.48;;;;;;;-140.66;100.00;55571.53;5117748;28;20032;-71
2023/08/24 16:13:18;;;;;;;12.95;9.18;;;;;;;-140.66;100.00;55571.53;5117499;28;20115;-71
2023/08/24 16:17:03;;;;;;;20.60;9.52;;;;;;;-140.66;100.00;55571.53;5117499;28;20028;-71
2023/08/24 16:20:48;;;;;;;17.08;9.32;;;;;;;-140.66;100.00;55571.53;5117276;28;20057;-71
2023/08/24 16:24:32;;;;;;;13.23;10.38;;;;;;;-140.66;100.00;55571.53;5116653;28;20427;-71
2023/08/24 16:28:16;;;;;;;17.73;10.35;;;;;;;-140.66;100.00;55571.53;5116945;28;20445;-72
2023/08/24 16:32:01;;;;;;;11.75;9.93;;;;;;;-140.66;100.00;55571.53;5117488;28;20031;-71
2023/08/24 16:35:45;;;;;;;14.32;9.77;;;;;;;-140.66;100.00;55571.53;5117302;28;20043;-71
2023/08/24 16:39:30;;;;;;;19.23;10.93;;;;;;;-140.66;100.00;55571.53;5116012;28;20059;-71
2023/08/24 16:43:14;;;;;;;18.80;10.88;;;;;;;-140.66;100.00;55571.53;5117547;28;20039;-70
2023/08/24 16:46:59;;;;;;;16.08;10.45;;;;;;;-140.66;100.00;55571.53;5117232;28;20449;-70